Station History

Weather Underground - logo

Station Historical Data
Daily Summary for July 5, 2017 Units:  English    Metric   Both
« Previous Day
Next Day »
Daily Weekly Monthly Yearly Custom
  High: Low: Average:
Temperature: 102.5 °F 64.7 °F 83.6 °F
Dew Point: 68.7 °F 57.4 °F 63.7 °F
Humidity: 86 % 25 % 55 %
Wind Speed: 5.8 mph 0.0 mph 1.5 mph
Wind Gust: 5.8 mph - -
Wind:- - SSW
Pressure: 29.95 in 29.82 in -
Precipitation: 0.00 in    
Historical Graphs
 
 
Tabular Data for July 5, 2017
Time Temperature Dew Point Pressure Wind Wind Speed Wind Gust Humidity Rainfall Rate (Hourly)
00:01 74.6 °F 61.6 °F 29.83 in Calm     64 % 0.00 in
00:06 74.6 °F 61.2 °F 29.83 in Calm     63 % 0.00 in
00:11 74.5 °F 60.6 °F 29.83 in Calm     62 % 0.00 in
00:16 74.4 °F 61.0 °F 29.83 in Calm     63 % 0.00 in
00:21 74.4 °F 61.4 °F 29.83 in Calm     64 % 0.00 in
00:22 74.4 °F 61.4 °F 29.83 in NE 1.2 mph 1.2 mph 64 % 0.00 in
00:27 74.3 °F 61.3 °F 29.83 in Calm     64 % 0.00 in
00:32 74.3 °F 61.8 °F 29.83 in Calm     65 % 0.00 in
00:37 74.2 °F 61.7 °F 29.83 in Calm     65 % 0.00 in
00:42 74.2 °F 63.0 °F 29.83 in Calm     68 % 0.00 in
00:47 74.0 °F 63.2 °F 29.83 in Calm     69 % 0.00 in
00:48 74.0 °F 62.8 °F 29.83 in Calm     68 % 0.00 in
00:53 74.2 °F 62.5 °F 29.83 in Calm     67 % 0.00 in
00:58 74.3 °F 62.6 °F 29.83 in Calm     67 % 0.00 in
01:03 74.2 °F 62.5 °F 29.83 in Calm     67 % 0.00 in
01:08 74.0 °F 62.8 °F 29.83 in Calm     68 % 0.00 in
01:13 73.8 °F 62.6 °F 29.83 in Calm     68 % 0.00 in
01:18 73.7 °F 62.5 °F 29.83 in NE 1.2 mph 1.2 mph 68 % 0.00 in
01:23 73.8 °F 62.6 °F 29.83 in Calm     68 % 0.00 in
01:28 73.5 °F 61.9 °F 29.83 in Calm     67 % 0.00 in
01:33 73.3 °F 62.5 °F 29.83 in Calm     69 % 0.00 in
01:38 73.1 °F 61.9 °F 29.83 in Calm     68 % 0.00 in
01:43 73.0 °F 62.2 °F 29.83 in Calm     69 % 0.00 in
01:48 72.7 °F 62.8 °F 29.83 in Calm     71 % 0.00 in
01:53 72.1 °F 61.8 °F 29.83 in Calm     70 % 0.00 in
01:58 71.6 °F 60.9 °F 29.83 in Calm     69 % 0.00 in
02:03 71.3 °F 60.6 °F 29.83 in Calm     69 % 0.00 in
02:08 71.2 °F 60.9 °F 29.83 in Calm     70 % 0.00 in
02:13 71.0 °F 61.5 °F 29.83 in Calm     72 % 0.00 in
02:18 70.9 °F 61.4 °F 29.83 in Calm     72 % 0.00 in
02:23 70.9 °F 61.4 °F 29.83 in Calm     72 % 0.00 in
02:28 70.8 °F 62.1 °F 29.83 in Calm     74 % 0.00 in
02:33 70.6 °F 62.3 °F 29.83 in Calm     75 % 0.00 in
02:38 70.5 °F 62.2 °F 29.83 in Calm     75 % 0.00 in
02:43 71.2 °F 63.2 °F 29.83 in North 1.2 mph 1.2 mph 76 % 0.00 in
02:48 72.2 °F 63.4 °F 29.83 in NNW 1.2 mph 1.2 mph 74 % 0.00 in
02:53 72.8 °F 63.6 °F 29.83 in NW 1.2 mph 1.2 mph 73 % 0.00 in
02:58 72.9 °F 63.7 °F 29.83 in NW 2.3 mph 2.3 mph 73 % 0.00 in
03:03 72.7 °F 63.5 °F 29.83 in NW 1.2 mph 1.2 mph 73 % 0.00 in
03:08 72.3 °F 63.5 °F 29.83 in Calm     74 % 0.00 in
03:13 71.9 °F 63.5 °F 29.83 in Calm     75 % 0.00 in
03:18 71.4 °F 63.1 °F 29.83 in Calm     75 % 0.00 in
03:23 70.9 °F 63.0 °F 29.84 in Calm     76 % 0.00 in
03:29 70.5 °F 62.9 °F 29.84 in Calm     77 % 0.00 in
03:34 69.9 °F 62.4 °F 29.84 in Calm     77 % 0.00 in
03:39 69.5 °F 62.3 °F 29.84 in Calm     78 % 0.00 in
03:44 69.0 °F 62.2 °F 29.84 in Calm     79 % 0.00 in
03:49 68.6 °F 62.2 °F 29.84 in Calm     80 % 0.00 in
03:54 68.4 °F 62.0 °F 29.85 in Calm     80 % 0.00 in
03:59 68.3 °F 61.9 °F 29.85 in Calm     80 % 0.00 in
04:04 68.2 °F 62.1 °F 29.85 in Calm     81 % 0.00 in
04:09 68.1 °F 62.0 °F 29.85 in Calm     81 % 0.00 in
04:14 68.3 °F 62.2 °F 29.85 in Calm     81 % 0.00 in
04:19 68.7 °F 62.3 °F 29.85 in Calm     80 % 0.00 in
04:24 68.8 °F 62.4 °F 29.85 in Calm     80 % 0.00 in
04:29 68.9 °F 62.5 °F 29.85 in Calm     80 % 0.00 in
04:34 68.9 °F 62.5 °F 29.86 in Calm     80 % 0.00 in
04:39 68.8 °F 62.7 °F 29.86 in Calm     81 % 0.00 in
04:44 68.6 °F 62.5 °F 29.86 in Calm     81 % 0.00 in
04:49 68.4 °F 62.3 °F 29.87 in Calm     81 % 0.00 in
04:54 68.0 °F 62.3 °F 29.87 in Calm     82 % 0.00 in
04:59 67.8 °F 62.4 °F 29.87 in Calm     83 % 0.00 in
05:04 67.7 °F 62.3 °F 29.87 in Calm     83 % 0.00 in
05:09 67.6 °F 62.3 °F 29.88 in Calm     83 % 0.00 in
05:14 67.5 °F 62.5 °F 29.88 in Calm     84 % 0.00 in
05:19 67.3 °F 62.0 °F 29.88 in Calm     83 % 0.00 in
05:24 67.2 °F 62.2 °F 29.88 in Calm     84 % 0.00 in
05:29 66.7 °F 61.7 °F 29.89 in Calm     84 % 0.00 in
05:34 66.3 °F 61.7 °F 29.89 in Calm     85 % 0.00 in
05:39 66.0 °F 61.7 °F 29.89 in Calm     86 % 0.00 in
05:44 65.6 °F 61.3 °F 29.89 in Calm     86 % 0.00 in
05:49 65.4 °F 60.8 °F 29.90 in Calm     85 % 0.00 in
05:54 65.1 °F 60.5 °F 29.90 in Calm     85 % 0.00 in
05:59 64.9 °F 60.3 °F 29.90 in Calm     85 % 0.00 in
06:05 64.7 °F 60.1 °F 29.90 in Calm     85 % 0.00 in
06:06 64.7 °F 60.1 °F 29.90 in Calm     85 % 0.00 in
06:11 64.9 °F 60.3 °F 29.90 in Calm     85 % 0.00 in
06:16 65.2 °F 60.6 °F 29.90 in Calm     85 % 0.00 in
06:21 65.5 °F 60.9 °F 29.90 in Calm     85 % 0.00 in
06:26 65.7 °F 60.7 °F 29.90 in Calm     84 % 0.00 in
06:31 66.0 °F 61.0 °F 29.90 in Calm     84 % 0.00 in
06:36 66.2 °F 61.2 °F 29.91 in Calm     84 % 0.00 in
06:41 66.6 °F 60.9 °F 29.91 in Calm   0.2 mph 82 % 0.00 in
06:46 67.5 °F 61.8 °F 29.90 in NNW 1.2 mph   82 % 0.00 in
06:51 68.7 °F 62.6 °F 29.91 in NE 1.2 mph 1.2 mph 81 % 0.00 in
06:56 69.7 °F 62.9 °F 29.91 in ESE 2.3 mph 2.3 mph 79 % 0.00 in
07:01 70.1 °F 62.9 °F 29.91 in East 1.2 mph   78 % 0.00 in
07:06 70.3 °F 62.7 °F 29.91 in East 1.2 mph 1.2 mph 77 % 0.00 in
07:11 70.7 °F 62.8 °F 29.91 in East 1.2 mph 1.2 mph 76 % 0.00 in
07:16 71.5 °F 62.8 °F 29.92 in ESE 2.0 mph 2.0 mph 74 % 0.00 in
07:21 72.1 °F 62.6 °F 29.92 in South 3.5 mph 3.5 mph 72 % 0.00 in
07:26 72.6 °F 62.7 °F 29.92 in ENE 3.0 mph 3.0 mph 71 % 0.00 in
07:31 73.1 °F 63.1 °F 29.92 in ENE 2.3 mph 2.3 mph 71 % 0.00 in
07:36 73.2 °F 62.8 °F 29.92 in ESE 2.3 mph 2.3 mph 70 % 0.00 in
07:41 73.5 °F 62.3 °F 29.93 in East 1.2 mph 1.3 mph 68 % 0.00 in
07:46 74.2 °F 63.0 °F 29.93 in East 3.5 mph 3.5 mph 68 % 0.00 in
07:51 74.9 °F 62.8 °F 29.93 in SSE 1.2 mph 1.2 mph 66 % 0.00 in
07:57 75.5 °F 62.0 °F 29.93 in SE 3.5 mph 3.5 mph 63 % 0.00 in
08:02 76.1 °F 61.7 °F 29.93 in SSE 2.3 mph 2.3 mph 61 % 0.00 in
08:07 77.0 °F 62.5 °F 29.93 in NE 3.5 mph 3.5 mph 61 % 0.00 in
08:12 77.0 °F 63.0 °F 29.93 in East 3.5 mph 3.5 mph 62 % 0.00 in
08:17 77.2 °F 63.6 °F 29.94 in SE 2.3 mph 2.3 mph 63 % 0.00 in
08:22 77.7 °F 63.6 °F 29.94 in SE 3.5 mph 3.5 mph 62 % 0.00 in
08:23 77.8 °F 63.7 °F 29.94 in ENE 4.0 mph 4.0 mph 62 % 0.00 in
08:28 77.8 °F 63.7 °F 29.94 in SSE 3.5 mph 3.5 mph 62 % 0.00 in
08:33 78.1 °F 64.0 °F 29.94 in East 2.3 mph 2.3 mph 62 % 0.00 in
08:38 78.3 °F 63.7 °F 29.94 in South 3.5 mph 3.5 mph 61 % 0.00 in
08:43 78.6 °F 63.6 °F 29.94 in East 4.6 mph 4.6 mph 60 % 0.00 in
08:48 78.8 °F 63.7 °F 29.94 in ESE 4.6 mph 4.6 mph 60 % 0.00 in
08:53 79.3 °F 64.2 °F 29.94 in ESE 3.5 mph 3.5 mph 60 % 0.00 in
08:58 79.7 °F 64.1 °F 29.94 in SSW 4.0 mph 4.0 mph 59 % 0.00 in
09:03 80.2 °F 63.1 °F 29.95 in SE 5.8 mph 5.8 mph 56 % 0.00 in
09:08 80.3 °F 63.7 °F 29.95 in SSE 2.3 mph 2.3 mph 57 % 0.00 in
09:13 79.9 °F 63.8 °F 29.95 in East 2.3 mph 2.3 mph 58 % 0.00 in
09:18 79.9 °F 63.3 °F 29.95 in SSE 3.5 mph 3.5 mph 57 % 0.00 in
09:19 80.0 °F 63.4 °F 29.95 in SSE 4.6 mph 4.6 mph 57 % 0.00 in
09:24 80.6 °F 63.5 °F 29.95 in SSE 3.5 mph 3.5 mph 56 % 0.00 in
09:29 81.3 °F 62.5 °F 29.95 in SSE 3.5 mph 3.5 mph 53 % 0.00 in
09:34 81.6 °F 62.3 °F 29.95 in ENE 3.5 mph 3.5 mph 52 % 0.00 in
09:39 81.8 °F 63.5 °F 29.95 in ESE 3.5 mph 3.5 mph 54 % 0.00 in
09:44 81.8 °F 61.9 °F 29.95 in SSE 5.8 mph 5.8 mph 51 % 0.00 in
09:49 81.7 °F 61.8 °F 29.95 in South 3.5 mph 3.5 mph 51 % 0.00 in
09:54 82.1 °F 62.7 °F 29.95 in East 3.5 mph 3.5 mph 52 % 0.00 in
09:59 82.5 °F 62.5 °F 29.95 in South 3.5 mph 3.5 mph 51 % 0.00 in
10:04 83.2 °F 63.2 °F 29.95 in NNE 3.5 mph 3.5 mph 51 % 0.00 in
10:09 83.7 °F 63.1 °F 29.95 in West 2.3 mph 2.3 mph 50 % 0.00 in
10:14 84.1 °F 62.3 °F 29.95 in SW 3.5 mph 3.5 mph 48 % 0.00 in
10:19 84.7 °F 63.4 °F 29.95 in South 2.0 mph 2.0 mph 49 % 0.00 in
10:24 85.1 °F 62.6 °F 29.95 in SW 2.3 mph 2.3 mph 47 % 0.00 in
10:29 85.1 °F 62.6 °F 29.95 in East 3.5 mph 3.5 mph 47 % 0.00 in
10:31 85.1 °F 63.2 °F 29.95 in South 3.5 mph 3.5 mph 48 % 0.00 in
10:36 85.4 °F 62.9 °F 29.95 in SE 3.5 mph 3.5 mph 47 % 0.00 in
10:41 85.9 °F 63.3 °F 29.95 in SE 2.3 mph 2.3 mph 47 % 0.00 in
10:46 86.2 °F 63.0 °F 29.95 in ESE 2.3 mph 2.3 mph 46 % 0.00 in
10:51 86.8 °F 63.5 °F 29.95 in SSE 3.0 mph 3.0 mph 46 % 0.00 in
10:56 87.0 °F 63.7 °F 29.95 in SW 1.2 mph 1.2 mph 46 % 0.00 in
11:01 87.2 °F 64.5 °F 29.95 in SSE 2.0 mph 2.0 mph 47 % 0.00 in
11:06 87.3 °F 63.4 °F 29.95 in SSE 2.3 mph 2.3 mph 45 % 0.00 in
11:11 87.1 °F 62.5 °F 29.95 in NNW 1.2 mph 1.2 mph 44 % 0.00 in
11:16 86.2 °F 63.0 °F 29.95 in North 1.2 mph 1.7 mph 46 % 0.00 in
11:21 86.0 °F 64.0 °F 29.95 in NNW 1.0 mph 1.0 mph 48 % 0.00 in
11:26 86.6 °F 62.7 °F 29.94 in WNW 2.3 mph 2.3 mph 45 % 0.00 in
11:31 86.9 °F 63.6 °F 29.94 in North 2.3 mph 2.3 mph 46 % 0.00 in
11:36 87.4 °F 62.2 °F 29.94 in SSE 3.5 mph 3.5 mph 43 % 0.00 in
11:41 87.7 °F 64.4 °F 29.94 in ESE 2.3 mph 2.3 mph 46 % 0.00 in
11:46 88.5 °F 63.8 °F 29.94 in NNW 2.3 mph 2.3 mph 44 % 0.00 in
11:51 89.2 °F 63.8 °F 29.94 in South 2.3 mph 2.3 mph 43 % 0.00 in
11:56 89.9 °F 63.7 °F 29.94 in SSE 2.3 mph   42 % 0.00 in
11:57 90.0 °F 63.8 °F 29.94 in SSE 1.2 mph 1.2 mph 42 % 0.00 in
12:02 90.6 °F 63.0 °F 29.94 in SE 3.5 mph 3.5 mph 40 % 0.00 in
12:07 90.4 °F 62.8 °F 29.94 in SE 3.5 mph 3.5 mph 40 % 0.00 in
12:12 90.2 °F 63.3 °F 29.94 in ESE 4.6 mph 4.6 mph 41 % 0.00 in
12:17 90.2 °F 64.0 °F 29.94 in ENE 3.5 mph 3.5 mph 42 % 0.00 in
12:22 90.2 °F 64.0 °F 29.93 in South 2.3 mph 2.3 mph 42 % 0.00 in
12:27 90.8 °F 63.9 °F 29.93 in SE 4.6 mph 4.6 mph 41 % 0.00 in
12:32 91.3 °F 63.6 °F 29.93 in SE 3.5 mph 3.5 mph 40 % 0.00 in
12:37 91.1 °F 64.1 °F 29.93 in Calm     41 % 0.00 in
12:42 91.7 °F 64.7 °F 29.93 in SSW 5.8 mph 5.8 mph 41 % 0.00 in
12:47 92.4 °F 63.9 °F 29.93 in South 2.3 mph 2.3 mph 39 % 0.00 in
12:52 92.3 °F 64.5 °F 29.93 in NW 1.2 mph 1.2 mph 40 % 0.00 in
12:54 92.5 °F 65.4 °F 29.93 in SE 2.3 mph 2.3 mph 41 % 0.00 in
12:59 92.4 °F 66.0 °F 29.93 in SE 1.2 mph 1.2 mph 42 % 0.00 in
13:04 93.2 °F 64.6 °F 29.93 in ESE 2.3 mph 2.3 mph 39 % 0.00 in
13:09 93.6 °F 64.2 °F 29.93 in SSE 4.6 mph 4.6 mph 38 % 0.00 in
13:14 93.9 °F 65.2 °F 29.93 in SSE 3.5 mph 3.5 mph 39 % 0.00 in
13:19 94.2 °F 65.4 °F 29.92 in SSE 3.5 mph 3.5 mph 39 % 0.00 in
13:24 94.3 °F 66.3 °F 29.92 in SSE 2.0 mph 2.0 mph 40 % 0.00 in
13:29 94.3 °F 64.0 °F 29.91 in SSE 2.3 mph 2.3 mph 37 % 0.00 in
13:34 95.1 °F 66.2 °F 29.91 in South 1.2 mph 1.2 mph 39 % 0.00 in
13:39 95.4 °F 65.8 °F 29.91 in SE 1.2 mph 1.2 mph 38 % 0.00 in
13:44 95.7 °F 65.3 °F 29.90 in SE 3.5 mph 3.5 mph 37 % 0.00 in
13:49 96.2 °F 62.4 °F 29.90 in East 2.3 mph 2.3 mph 33 % 0.00 in
13:54 96.5 °F 64.4 °F 29.90 in SSE 1.2 mph 1.2 mph 35 % 0.00 in
13:59 97.5 °F 65.2 °F 29.90 in SE 2.3 mph   35 % 0.00 in
14:04 97.9 °F 62.1 °F 29.90 in SSE 3.5 mph 3.5 mph 31 % 0.00 in
14:09 98.2 °F 63.3 °F 29.90 in ESE 2.3 mph 2.3 mph 32 % 0.00 in
14:14 98.2 °F 59.5 °F 29.89 in NW 3.5 mph 3.5 mph 28 % 0.00 in
14:19 98.3 °F 61.5 °F 29.89 in WNW 3.5 mph 3.5 mph 30 % 0.00 in
14:24 98.8 °F 60.0 °F 29.89 in ESE 1.2 mph 1.2 mph 28 % 0.00 in
14:29 99.4 °F 63.4 °F 29.89 in SE 1.2 mph 1.2 mph 31 % 0.00 in
14:34 99.4 °F 64.3 °F 29.88 in SE 3.5 mph 3.5 mph 32 % 0.00 in
14:39 99.7 °F 62.7 °F 29.88 in West 1.0 mph 1.0 mph 30 % 0.00 in
14:44 99.5 °F 63.5 °F 29.88 in NW 4.6 mph 4.6 mph 31 % 0.00 in
14:49 99.1 °F 65.0 °F 29.88 in South 2.3 mph 2.3 mph 33 % 0.00 in
14:54 98.9 °F 63.0 °F 29.88 in West 3.5 mph 3.5 mph 31 % 0.00 in
14:59 98.3 °F 63.4 °F 29.88 in NW 2.3 mph 2.3 mph 32 % 0.00 in
15:04 98.8 °F 62.9 °F 29.87 in WNW 2.3 mph 2.3 mph 31 % 0.00 in
15:09 99.5 °F 62.6 °F 29.87 in SE 1.2 mph 1.2 mph 30 % 0.00 in
15:14 100.2 °F 62.2 °F 29.87 in East 2.3 mph 2.3 mph 29 % 0.00 in
15:19 100.6 °F 60.5 °F 29.87 in NW 1.2 mph 1.2 mph 27 % 0.00 in
15:24 100.0 °F 63.0 °F 29.86 in NW 2.3 mph 2.3 mph 30 % 0.00 in
15:29 99.9 °F 62.9 °F 29.87 in NE 2.3 mph 2.3 mph 30 % 0.00 in
15:34 99.9 °F 61.0 °F 29.86 in North 3.5 mph 3.5 mph 28 % 0.00 in
15:39 99.9 °F 62.0 °F 29.86 in NW 3.0 mph 3.0 mph 29 % 0.00 in
15:44 99.9 °F 62.0 °F 29.86 in WNW 1.2 mph 1.2 mph 29 % 0.00 in
15:49 99.5 °F 57.4 °F 29.85 in SE 3.5 mph 3.5 mph 25 % 0.00 in
15:54 100.0 °F 59.0 °F 29.85 in WNW 1.2 mph 1.2 mph 26 % 0.00 in
15:59 100.5 °F 58.3 °F 29.85 in NNW 3.5 mph 3.5 mph 25 % 0.00 in
16:04 100.4 °F 58.2 °F 29.85 in West 2.3 mph 2.3 mph 25 % 0.00 in
16:09 101.2 °F 62.1 °F 29.85 in NW 1.2 mph 1.3 mph 28 % 0.00 in
16:34 101.9 °F 62.7 °F 29.84 in NNW 2.3 mph 2.3 mph 28 % 0.00 in
16:39 102.3 °F 62.0 °F 29.83 in SE 1.2 mph 1.2 mph 27 % 0.00 in
16:44 102.4 °F 61.0 °F 29.83 in West 2.3 mph 2.3 mph 26 % 0.00 in
16:49 102.5 °F 62.1 °F 29.83 in ESE 1.2 mph 1.2 mph 27 % 0.00 in
16:54 102.5 °F 63.2 °F 29.83 in NNW 2.3 mph 2.3 mph 28 % 0.00 in
16:59 102.4 °F 62.1 °F 29.83 in NW 2.3 mph 2.3 mph 27 % 0.00 in
17:04 102.4 °F 62.1 °F 29.83 in ENE 3.5 mph 3.5 mph 27 % 0.00 in
17:09 102.1 °F 63.8 °F 29.83 in SSW 4.6 mph 4.6 mph 29 % 0.00 in
17:14 102.0 °F 63.8 °F 29.83 in WNW 2.3 mph 2.3 mph 29 % 0.00 in
17:16 101.9 °F 63.7 °F 29.83 in West 2.3 mph 2.3 mph 29 % 0.00 in
17:21 101.7 °F 63.5 °F 29.83 in NW 2.3 mph 2.3 mph 29 % 0.00 in
17:26 101.6 °F 63.4 °F 29.82 in WNW 2.3 mph 2.3 mph 29 % 0.00 in
17:31 101.7 °F 63.5 °F 29.82 in WNW 3.5 mph 3.5 mph 29 % 0.00 in
17:36 101.5 °F 63.3 °F 29.82 in NW 1.2 mph 1.2 mph 29 % 0.00 in
17:41 101.2 °F 62.1 °F 29.82 in NW 2.3 mph 2.3 mph 28 % 0.00 in
17:46 100.9 °F 61.8 °F 29.82 in NW 2.3 mph 2.3 mph 28 % 0.00 in
17:51 100.6 °F 62.6 °F 29.82 in NW 3.5 mph 3.5 mph 29 % 0.00 in
17:56 99.7 °F 62.7 °F 29.82 in NW 3.5 mph 3.5 mph 30 % 0.00 in
18:01 99.2 °F 64.2 °F 29.82 in NNW 4.6 mph 4.6 mph 32 % 0.00 in
18:06 98.7 °F 64.6 °F 29.82 in NW 4.6 mph 4.6 mph 33 % 0.00 in
18:11 98.4 °F 64.3 °F 29.82 in NW 4.6 mph 4.6 mph 33 % 0.00 in
18:16 98.0 °F 64.9 °F 29.82 in WNW 3.5 mph 3.5 mph 34 % 0.00 in
18:21 97.7 °F 64.6 °F 29.83 in NW 5.8 mph 5.8 mph 34 % 0.00 in
18:26 97.6 °F 62.8 °F 29.83 in NW 2.3 mph 2.3 mph 32 % 0.00 in
18:31 97.6 °F 64.5 °F 29.83 in NW 3.5 mph 3.5 mph 34 % 0.00 in
18:36 97.2 °F 65.0 °F 29.83 in NNW 3.5 mph 3.5 mph 35 % 0.00 in
18:41 97.0 °F 64.8 °F 29.83 in WNW 4.0 mph 4.0 mph 35 % 0.00 in
18:46 96.8 °F 65.4 °F 29.83 in West 4.0 mph 4.0 mph 36 % 0.00 in
18:51 96.5 °F 65.2 °F 29.83 in NNW 3.5 mph 3.5 mph 36 % 0.00 in
19:01 96.0 °F 66.3 °F 29.83 in NW 1.2 mph 1.2 mph 38 % 0.00 in
19:02 95.9 °F 66.2 °F 29.83 in NW 1.2 mph 1.2 mph 38 % 0.00 in
19:07 95.5 °F 67.3 °F 29.83 in WNW 1.0 mph 1.0 mph 40 % 0.00 in
19:12 95.4 °F 66.5 °F 29.84 in NW 1.2 mph 1.2 mph 39 % 0.00 in
19:17 95.1 °F 65.5 °F 29.84 in WNW 3.5 mph 3.5 mph 38 % 0.00 in
19:22 94.6 °F 65.1 °F 29.84 in NW 2.3 mph 2.3 mph 38 % 0.00 in
19:27 94.0 °F 66.0 °F 29.84 in WNW 1.2 mph 1.2 mph 40 % 0.00 in
19:32 93.5 °F 66.3 °F 29.84 in West 1.2 mph 1.2 mph 41 % 0.00 in
19:37 93.0 °F 66.5 °F 29.84 in WNW 1.2 mph 1.2 mph 42 % 0.00 in
19:42 92.6 °F 66.2 °F 29.85 in WNW 1.2 mph 1.2 mph 42 % 0.00 in
19:47 92.3 °F 66.6 °F 29.85 in NW 2.3 mph   43 % 0.00 in
19:52 91.8 °F 66.1 °F 29.85 in NW 1.2 mph 1.2 mph 43 % 0.00 in
19:57 91.4 °F 66.4 °F 29.85 in WNW 1.2 mph 1.2 mph 44 % 0.00 in
20:02 91.0 °F 66.7 °F 29.85 in NE 1.2 mph 1.2 mph 45 % 0.00 in
20:07 90.7 °F 66.4 °F 29.85 in Calm     45 % 0.00 in
20:09 90.6 °F 66.3 °F 29.85 in Calm     45 % 0.00 in
20:14 90.3 °F 66.7 °F 29.85 in NW 1.2 mph 1.2 mph 46 % 0.00 in
20:19 90.0 °F 66.4 °F 29.85 in Calm     46 % 0.00 in
20:24 89.7 °F 66.8 °F 29.85 in Calm     47 % 0.00 in
20:29 89.4 °F 66.5 °F 29.86 in Calm     47 % 0.00 in
20:34 89.2 °F 66.9 °F 29.86 in NW 1.2 mph   48 % 0.00 in
20:39 89.1 °F 66.9 °F 29.86 in Calm     48 % 0.00 in
20:44 88.8 °F 67.8 °F 29.86 in Calm     50 % 0.00 in
20:49 88.3 °F 67.9 °F 29.86 in Calm     51 % 0.00 in
20:54 87.8 °F 66.8 °F 29.86 in Calm     50 % 0.00 in
20:59 87.4 °F 67.1 °F 29.87 in Calm     51 % 0.00 in
21:04 87.1 °F 67.3 °F 29.87 in Calm     52 % 0.00 in
21:09 86.8 °F 68.2 °F 29.87 in Calm     54 % 0.00 in
21:14 86.6 °F 68.0 °F 29.87 in Calm     54 % 0.00 in
21:19 86.2 °F 68.7 °F 29.87 in Calm     56 % 0.00 in
21:24 85.8 °F 68.3 °F 29.87 in Calm     56 % 0.00 in
21:30 85.6 °F 68.1 °F 29.87 in Calm     56 % 0.00 in
21:35 85.7 °F 68.7 °F 29.87 in Calm     57 % 0.00 in
21:40 85.4 °F 68.4 °F 29.87 in Calm     57 % 0.00 in
21:45 84.9 °F 68.5 °F 29.87 in Calm     58 % 0.00 in
21:50 85.1 °F 68.2 °F 29.87 in Calm     57 % 0.00 in
21:55 84.9 °F 68.0 °F 29.87 in Calm     57 % 0.00 in
22:00 84.6 °F 67.2 °F 29.88 in Calm     56 % 0.00 in
22:05 84.7 °F 67.3 °F 29.88 in Calm     56 % 0.00 in
22:10 84.7 °F 67.3 °F 29.88 in Calm     56 % 0.00 in
22:15 84.4 °F 68.5 °F 29.88 in Calm     59 % 0.00 in
22:20 83.8 °F 67.9 °F 29.88 in Calm     59 % 0.00 in
22:25 83.6 °F 67.8 °F 29.88 in Calm     59 % 0.00 in
22:30 83.5 °F 68.2 °F 29.88 in Calm     60 % 0.00 in
22:35 83.1 °F 68.3 °F 29.88 in Calm     61 % 0.00 in
22:40 82.7 °F 67.9 °F 29.89 in Calm     61 % 0.00 in
22:45 82.2 °F 68.3 °F 29.89 in Calm     63 % 0.00 in
22:50 81.7 °F 67.9 °F 29.89 in Calm     63 % 0.00 in
22:55 81.5 °F 67.2 °F 29.89 in Calm     62 % 0.00 in
23:00 81.4 °F 68.1 °F 29.89 in Calm     64 % 0.00 in
23:05 80.9 °F 67.6 °F 29.89 in Calm     64 % 0.00 in
23:10 80.5 °F 66.7 °F 29.89 in Calm     63 % 0.00 in
23:15 80.2 °F 66.9 °F 29.90 in Calm     64 % 0.00 in
23:20 79.9 °F 67.1 °F 29.90 in Calm     65 % 0.00 in
23:25 79.7 °F 67.8 °F 29.90 in Calm     67 % 0.00 in
23:30 79.3 °F 67.8 °F 29.90 in Calm     68 % 0.00 in
23:35 79.1 °F 67.2 °F 29.90 in Calm     67 % 0.00 in
23:40 79.0 °F 67.5 °F 29.90 in Calm     68 % 0.00 in
23:45 78.8 °F 68.2 °F 29.90 in Calm     70 % 0.00 in
23:50 78.6 °F 67.6 °F 29.90 in Calm     69 % 0.00 in
23:55 78.4 °F 67.8 °F 29.90 in Calm     70 % 0.00 in
Park Place, Exeter, Tulare County, California, USA
Compliments of Weather Underground - 2.75 mb